Time;durP1;ratioP1;P1;durP2;ratioP2;P2;SDS_P1;SDS_P2;PMS_P1;PMS_P2;Temp;Humidity;BMP_temperature;BMP_pressure;BME280_temperature;BME280_humidity;BME280_pressure;Samples;Min_cycle;Max_cycle;Signal;HPM_P1;HPM_P2
2023/05/19 00:00:15;;;;;;;1.13;1.00;;;19.10;43.30;;;;;;5104980;28;20220;-85
2023/05/19 00:02:42;;;;;;;0.73;0.73;;;19.10;43.50;;;;;;5088379;28;20248;-84
2023/05/19 00:05:17;;;;;;;0.88;0.75;;;19.10;43.40;;;;;;5104586;28;20205;-85
2023/05/19 00:07:42;;;;;;;1.80;0.90;;;19.20;43.50;;;;;;5104981;28;20189;-85
2023/05/19 00:10:09;;;;;;;1.00;0.90;;;19.10;43.40;;;;;;5104836;28;20148;-84
2023/05/19 00:12:35;;;;;;;0.75;0.75;;;19.10;43.40;;;;;;5103554;28;20537;-85
2023/05/19 00:15:02;;;;;;;1.40;1.00;;;19.10;43.50;;;;;;5101624;28;20241;-84
2023/05/19 00:17:28;;;;;;;0.80;0.80;;;19.10;43.40;;;;;;5103311;28;20140;-84
2023/05/19 00:19:54;;;;;;;1.10;1.00;;;19.10;43.50;;;;;;5103053;28;20672;-84
2023/05/19 00:22:19;;;;;;;0.85;0.70;;;19.10;43.50;;;;;;5090727;28;20284;-84
2023/05/19 00:24:45;;;;;;;1.33;0.88;;;19.00;43.40;;;;;;5079757;28;20240;-84
2023/05/19 00:27:12;;;;;;;0.98;0.85;;;19.10;43.50;;;;;;5063953;28;20162;-84
2023/05/19 00:29:38;;;;;;;1.08;0.90;;;19.00;43.50;;;;;;5080145;28;20160;-85
2023/05/19 00:32:04;;;;;;;0.70;0.68;;;19.00;44.20;;;;;;5096930;28;20157;-85
2023/05/19 00:34:30;;;;;;;1.00;0.90;;;19.00;43.50;;;;;;5079601;28;20161;-84
2023/05/19 00:36:59;;;;;;;0.80;0.80;;;19.10;43.50;;;;;;5080752;28;20583;-84
2023/05/19 00:39:24;;;;;;;1.05;0.90;;;19.10;43.50;;;;;;5079132;28;20184;-85
2023/05/19 00:41:51;;;;;;;1.08;0.73;;;19.00;43.50;;;;;;5065258;28;20181;-85
2023/05/19 00:44:17;;;;;;;0.70;0.70;;;19.10;43.50;;;;;;5084032;28;20177;-84
2023/05/19 00:46:42;;;;;;;0.70;0.70;;;19.00;43.50;;;;;;5084441;28;20210;-85
2023/05/19 00:49:09;;;;;;;0.80;0.70;;;19.10;43.60;;;;;;5083458;28;20527;-85
2023/05/19 00:51:36;;;;;;;0.98;0.80;;;19.00;43.60;;;;;;5084282;28;20151;-84
2023/05/19 00:54:02;;;;;;;1.42;1.00;;;19.10;43.60;;;;;;5083449;28;20253;-84
2023/05/19 00:56:28;;;;;;;1.27;0.80;;;19.00;43.60;;;;;;5067982;28;20597;-84
2023/05/19 00:58:54;;;;;;;1.05;0.80;;;19.00;43.60;;;;;;5084446;28;20215;-84
2023/05/19 01:01:21;;;;;;;1.08;0.90;;;19.10;43.70;;;;;;5084392;28;20165;-84
2023/05/19 01:03:47;;;;;;;1.23;0.85;;;19.00;43.60;;;;;;5083435;28;20237;-84
2023/05/19 01:06:13;;;;;;;0.70;0.70;;;19.00;43.70;;;;;;5067961;28;20157;-84
2023/05/19 01:08:40;;;;;;;0.85;0.80;;;19.00;43.70;;;;;;5084481;28;20154;-84
2023/05/19 01:11:06;;;;;;;0.88;0.88;;;19.00;43.70;;;;;;5101189;28;20153;-85
2023/05/19 01:13:34;;;;;;;1.08;0.90;;;19.10;43.70;;;;;;5083602;28;20168;-85
2023/05/19 01:16:11;;;;;;;1.05;0.95;;;19.00;43.80;;;;;;5083795;28;20157;-85
2023/05/19 01:19:11;;;;;;;1.20;0.85;;;19.00;43.80;;;;;;5083807;28;20161;-84
2023/05/19 01:21:57;;;;;;;1.15;0.82;;;19.00;43.80;;;;;;5089808;28;20693;-84
2023/05/19 01:24:33;;;;;;;0.77;0.77;;;19.10;43.80;;;;;;5091322;28;20676;-85
2023/05/19 01:27:20;;;;;;;1.00;0.93;;;19.00;43.80;;;;;;5109595;28;20148;-84
2023/05/19 01:30:16;;;;;;;0.80;0.80;;;19.00;43.90;;;;;;5126486;28;20148;-84
2023/05/19 01:32:42;;;;;;;1.20;0.90;;;19.00;43.90;;;;;;5109691;28;20159;-84
2023/05/19 01:35:08;;;;;;;0.80;0.80;;;19.00;43.90;;;;;;5090800;28;20168;-84
2023/05/19 01:37:37;;;;;;;0.60;0.60;;;19.00;43.90;;;;;;5107685;28;20341;-85
2023/05/19 01:40:02;;;;;;;0.95;0.80;;;19.00;43.90;;;;;;5082184;28;20220;-85
2023/05/19 01:42:35;;;;;;;1.35;0.70;;;19.00;43.90;;;;;;5082931;28;20181;-84
2023/05/19 01:45:03;;;;;;;0.90;0.90;;;19.00;43.90;;;;;;5083093;28;20181;-84
2023/05/19 01:47:28;;;;;;;0.82;0.77;;;19.00;43.90;;;;;;5066516;28;20161;-84
2023/05/19 01:49:55;;;;;;;1.35;0.90;;;19.00;43.90;;;;;;5065624;28;20226;-84
2023/05/19 01:52:20;;;;;;;0.90;0.90;;;19.00;43.90;;;;;;5082377;28;20157;-84
2023/05/19 01:54:46;;;;;;;0.80;0.80;;;19.00;43.90;;;;;;5081921;28;20185;-84
2023/05/19 01:57:31;;;;;;;0.88;0.88;;;19.00;44.00;;;;;;5061415;28;20169;-84
2023/05/19 02:00:06;;;;;;;0.80;0.80;;;18.90;43.90;;;;;;5074566;28;20288;-83
2023/05/19 02:02:52;;;;;;;1.15;0.80;;;18.90;43.90;;;;;;5057034;28;20201;-83
2023/05/19 02:05:28;;;;;;;0.85;0.82;;;19.00;44.00;;;;;;5074591;28;20177;-83
2023/05/19 02:08:00;;;;;;;1.00;0.90;;;19.00;44.00;;;;;;5057713;28;20157;-83
2023/05/19 02:10:29;;;;;;;1.20;0.90;;;18.90;44.00;;;;;;5068409;28;20206;-83
2023/05/19 02:12:55;;;;;;;1.17;0.93;;;19.00;44.00;;;;;;5099019;28;20164;-84
2023/05/19 02:15:23;;;;;;;1.05;0.88;;;18.90;44.00;;;;;;5116785;28;20239;-83
2023/05/19 02:17:50;;;;;;;1.10;1.00;;;19.00;44.10;;;;;;5098409;28;20598;-83
2023/05/19 02:20:16;;;;;;;1.02;0.90;;;18.90;44.10;;;;;;5098786;28;20144;-84
2023/05/19 02:22:42;;;;;;;1.05;0.93;;;18.90;44.00;;;;;;5116334;28;20216;-83
2023/05/19 02:25:08;;;;;;;1.02;0.80;;;18.90;44.10;;;;;;5098583;28;20156;-83
2023/05/19 02:27:35;;;;;;;0.80;0.80;;;18.90;44.10;;;;;;5098606;28;20152;-83
2023/05/19 02:30:02;;;;;;;1.05;0.98;;;19.00;44.20;;;;;;5081659;28;20160;-83
2023/05/19 02:32:27;;;;;;;0.80;0.80;;;18.90;44.10;;;;;;5098298;28;20168;-83
2023/05/19 02:34:55;;;;;;;0.80;0.80;;;18.90;44.10;;;;;;5098487;28;20266;-83
2023/05/19 02:37:22;;;;;;;0.75;0.75;;;18.90;44.10;;;;;;5098527;28;20167;-84
2023/05/19 02:39:48;;;;;;;1.33;0.82;;;19.00;44.20;;;;;;5098326;28;20152;-83
2023/05/19 02:42:16;;;;;;;0.80;0.80;;;19.00;44.20;;;;;;5098026;28;20161;-83
2023/05/19 02:44:42;;;;;;;1.15;1.02;;;18.90;44.20;;;;;;5116079;28;20183;-83
2023/05/19 02:47:08;;;;;;;1.20;1.08;;;18.90;44.20;;;;;;5098030;28;20510;-83
2023/05/19 02:49:36;;;;;;;1.45;0.80;;;18.90;44.20;;;;;;5097652;28;20148;-83
2023/05/19 02:52:03;;;;;;;0.80;0.80;;;19.00;44.20;;;;;;5097969;28;20144;-83
2023/05/19 02:54:30;;;;;;;1.23;0.95;;;18.90;44.20;;;;;;5115529;28;20158;-84
2023/05/19 02:56:55;;;;;;;0.82;0.80;;;18.90;44.20;;;;;;5097447;28;20205;-83
2023/05/19 02:59:22;;;;;;;1.10;0.80;;;18.90;44.20;;;;;;5097145;28;20164;-83
2023/05/19 03:01:48;;;;;;;1.25;0.90;;;18.90;44.20;;;;;;5115355;28;20156;-83
2023/05/19 03:04:13;;;;;;;0.80;0.80;;;18.90;44.20;;;;;;5115188;28;20638;-83
2023/05/19 03:06:39;;;;;;;1.00;0.90;;;18.90;44.20;;;;;;5115479;28;20156;-82
2023/05/19 03:09:05;;;;;;;0.80;0.70;;;18.90;44.20;;;;;;5097531;28;20164;-83
2023/05/19 03:11:30;;;;;;;0.95;0.80;;;18.90;44.20;;;;;;5096972;28;20163;-83
2023/05/19 03:13:57;;;;;;;1.08;0.90;;;18.90;44.20;;;;;;5097188;28;20160;-84
2023/05/19 03:16:23;;;;;;;1.38;0.90;;;18.90;44.20;;;;;;5096877;28;20156;-83
2023/05/19 03:18:49;;;;;;;1.02;0.93;;;18.90;44.30;;;;;;5096709;28;20258;-83
2023/05/19 03:21:15;;;;;;;0.70;0.70;;;18.90;44.20;;;;;;5097107;28;20579;-82
2023/05/19 03:23:41;;;;;;;0.82;0.80;;;18.90;44.20;;;;;;5096432;28;20204;-83
2023/05/19 03:26:06;;;;;;;1.13;0.77;;;18.90;44.20;;;;;;5096542;28;20168;-83
2023/05/19 03:28:32;;;;;;;0.80;0.80;;;18.90;44.20;;;;;;5096545;28;20255;-83
2023/05/19 03:30:58;;;;;;;1.13;1.00;;;18.90;44.20;;;;;;5079999;28;20164;-82
2023/05/19 03:33:23;;;;;;;0.88;0.80;;;18.90;44.20;;;;;;5079625;28;20304;-83
2023/05/19 03:35:49;;;;;;;1.50;1.00;;;19.00;44.30;;;;;;5096340;28;20316;-83
2023/05/19 03:38:15;;;;;;;0.93;0.90;;;19.00;44.30;;;;;;5096252;28;20180;-83
2023/05/19 03:40:40;;;;;;;1.02;0.95;;;18.90;44.20;;;;;;5079684;28;20179;-82
2023/05/19 03:43:06;;;;;;;0.70;0.70;;;18.90;44.20;;;;;;5079548;28;20195;-83
2023/05/19 03:45:32;;;;;;;1.40;0.90;;;19.00;44.30;;;;;;5097104;28;20504;-83
2023/05/19 03:47:57;;;;;;;1.55;1.00;;;18.90;44.20;;;;;;5079859;28;20168;-83
2023/05/19 03:50:23;;;;;;;1.13;0.90;;;18.90;44.20;;;;;;5114561;28;20213;-83
2023/05/19 03:52:49;;;;;;;0.80;0.80;;;19.00;44.30;;;;;;5096631;28;20213;-83
2023/05/19 03:55:15;;;;;;;0.88;0.80;;;18.90;44.20;;;;;;5096453;28;20156;-83
2023/05/19 03:57:42;;;;;;;0.90;0.80;;;19.00;44.20;;;;;;5096489;28;20168;-83
2023/05/19 04:00:10;;;;;;;0.70;0.70;;;19.00;44.20;;;;;;5095972;28;20168;-83
2023/05/19 04:02:35;;;;;;;0.80;0.70;;;19.00;44.20;;;;;;5114071;28;20679;-83
2023/05/19 04:05:03;;;;;;;1.05;0.70;;;19.00;44.20;;;;;;5095891;28;20171;-83
2023/05/19 04:07:30;;;;;;;0.80;0.80;;;19.00;44.20;;;;;;5095845;28;20159;-82
2023/05/19 04:09:56;;;;;;;0.98;0.90;;;19.00;44.20;;;;;;5114326;28;20156;-83
2023/05/19 04:12:21;;;;;;;1.17;0.80;;;19.00;44.30;;;;;;5095906;28;20148;-83
2023/05/19 04:14:47;;;;;;;1.20;0.80;;;19.00;44.30;;;;;;5095799;28;20221;-83
2023/05/19 04:17:13;;;;;;;1.42;0.93;;;19.00;44.30;;;;;;5095368;28;20190;-82
2023/05/19 04:19:39;;;;;;;1.23;1.05;;;19.00;44.30;;;;;;5095804;28;20196;-83
2023/05/19 04:22:04;;;;;;;1.00;0.80;;;19.00;44.30;;;;;;5085340;28;20714;-83
2023/05/19 04:24:30;;;;;;;1.10;1.00;;;19.00;44.20;;;;;;5072301;28;20193;-82
2023/05/19 04:27:01;;;;;;;0.82;0.80;;;19.00;44.20;;;;;;5072131;28;20164;-83
2023/05/19 04:29:28;;;;;;;1.23;1.00;;;19.00;44.20;;;;;;5056069;28;20176;-83
2023/05/19 04:31:54;;;;;;;1.33;0.80;;;19.10;44.20;;;;;;5072543;28;20150;-83
2023/05/19 04:34:20;;;;;;;1.15;1.00;;;19.00;44.10;;;;;;5072119;28;20162;-83
2023/05/19 04:36:45;;;;;;;0.80;0.80;;;19.10;44.20;;;;;;5089486;28;20692;-83
2023/05/19 04:39:11;;;;;;;0.80;0.80;;;19.10;44.10;;;;;;5072150;28;20160;-83
2023/05/19 04:41:40;;;;;;;1.27;0.90;;;19.10;44.10;;;;;;5073117;28;20165;-83
2023/05/19 04:44:08;;;;;;;1.50;0.80;;;19.10;44.10;;;;;;5071825;28;20177;-83
2023/05/19 04:46:34;;;;;;;1.00;0.90;;;19.10;44.10;;;;;;5072226;28;20256;-83
2023/05/19 04:49:00;;;;;;;0.82;0.80;;;19.10;44.10;;;;;;5088663;28;20200;-83
2023/05/19 04:51:26;;;;;;;0.70;0.70;;;19.10;44.10;;;;;;5071905;28;20615;-84
2023/05/19 04:53:54;;;;;;;1.00;0.80;;;19.10;44.10;;;;;;5072512;28;20227;-83
2023/05/19 04:56:20;;;;;;;0.77;0.77;;;19.10;44.10;;;;;;5072291;28;20165;-83
2023/05/19 04:58:47;;;;;;;1.83;0.70;;;19.10;44.10;;;;;;5071855;28;20229;-83
2023/05/19 05:01:14;;;;;;;1.10;0.90;;;19.10;44.10;;;;;;5071840;28;20620;-82
2023/05/19 05:03:41;;;;;;;1.27;0.73;;;19.20;44.20;;;;;;5072034;28;20185;-83
2023/05/19 05:06:07;;;;;;;0.80;0.80;;;19.20;44.10;;;;;;5072880;28;20153;-83
2023/05/19 05:08:33;;;;;;;1.35;0.98;;;19.20;44.10;;;;;;5071781;28;20161;-83
2023/05/19 05:10:59;;;;;;;0.93;0.77;;;19.20;44.10;;;;;;5055172;28;20166;-84
2023/05/19 05:13:25;;;;;;;0.80;0.80;;;19.10;44.00;;;;;;5071733;28;20158;-83
2023/05/19 05:15:51;;;;;;;0.77;0.65;;;19.20;44.10;;;;;;5071733;28;20519;-83
2023/05/19 05:18:17;;;;;;;1.00;0.90;;;19.20;44.00;;;;;;5088445;28;20218;-83
2023/05/19 05:20:45;;;;;;;0.70;0.70;;;19.20;43.90;;;;;;5072410;28;20215;-83
2023/05/19 05:23:15;;;;;;;1.55;0.90;;;19.20;44.00;;;;;;5104809;28;20572;-83
2023/05/19 05:25:41;;;;;;;1.38;0.90;;;19.20;44.00;;;;;;5098672;28;20158;-83
2023/05/19 05:28:07;;;;;;;1.05;0.82;;;19.20;44.00;;;;;;5115848;27;20160;-83
2023/05/19 05:30:33;;;;;;;0.70;0.70;;;19.20;44.00;;;;;;5102664;27;20597;-83
2023/05/19 05:32:58;;;;;;;0.80;0.80;;;19.30;44.00;;;;;;5119316;27;20155;-83
2023/05/19 05:35:24;;;;;;;0.73;0.73;;;19.20;43.90;;;;;;5120082;27;20220;-83
2023/05/19 05:37:50;;;;;;;1.00;0.90;;;19.30;44.00;;;;;;5119939;27;20190;-84
2023/05/19 05:40:16;;;;;;;1.13;1.00;;;19.30;44.00;;;;;;5102160;27;20257;-83
2023/05/19 05:42:42;;;;;;;0.73;0.70;;;19.30;43.90;;;;;;5119112;27;20151;-83
2023/05/19 05:45:08;;;;;;;1.10;0.95;;;19.30;43.80;;;;;;5102515;27;20159;-83
2023/05/19 05:47:36;;;;;;;1.98;0.90;;;19.30;43.90;;;;;;5102497;27;20164;-83
2023/05/19 05:50:03;;;;;;;1.02;0.90;;;19.40;43.80;;;;;;5120957;27;20172;-83
2023/05/19 05:52:29;;;;;;;1.17;0.70;;;19.30;43.80;;;;;;5119455;27;20180;-83
2023/05/19 05:54:55;;;;;;;0.80;0.80;;;19.30;43.90;;;;;;5119505;27;20168;-83
2023/05/19 05:57:21;;;;;;;1.02;0.90;;;19.30;43.80;;;;;;5119381;27;20159;-83
2023/05/19 05:59:47;;;;;;;1.10;0.85;;;19.40;43.90;;;;;;5102063;27;20168;-83
2023/05/19 06:02:13;;;;;;;1.10;1.00;;;19.30;43.80;;;;;;5101889;27;20507;-83
2023/05/19 06:04:39;;;;;;;0.73;0.73;;;19.50;43.80;;;;;;5119173;27;20213;-83
2023/05/19 06:07:05;;;;;;;0.70;0.70;;;19.50;44.20;;;;;;5118912;27;20151;-83
2023/05/19 06:09:31;;;;;;;0.88;0.85;;;19.50;44.40;;;;;;5098225;28;20164;-84
2023/05/19 06:11:59;;;;;;;1.15;0.88;;;19.50;44.30;;;;;;5102126;28;20148;-84
2023/05/19 06:14:24;;;;;;;1.58;1.00;;;19.50;44.30;;;;;;5109126;28;20183;-84
2023/05/19 06:16:52;;;;;;;1.10;0.90;;;19.40;44.90;;;;;;5122874;28;20611;-83
2023/05/19 06:19:19;;;;;;;1.27;1.17;;;19.30;45.90;;;;;;5099717;28;20651;-84
2023/05/19 06:21:45;;;;;;;1.30;1.10;;;19.40;46.60;;;;;;5091361;28;20367;-84
2023/05/19 06:24:11;;;;;;;2.17;0.75;;;19.50;46.40;;;;;;5059373;28;20252;-83
2023/05/19 06:26:36;;;;;;;0.98;0.68;;;19.40;45.60;;;;;;5078969;28;20172;-84
2023/05/19 06:29:02;;;;;;;1.10;0.90;;;19.50;45.40;;;;;;5078422;28;20157;-84
2023/05/19 06:31:28;;;;;;;0.85;0.80;;;19.60;45.40;;;;;;5095832;28;20149;-84
2023/05/19 06:33:54;;;;;;;2.00;0.90;;;19.60;44.80;;;;;;5095633;28;20157;-84
2023/05/19 06:36:20;;;;;;;1.50;0.90;;;19.70;44.90;;;;;;5061937;28;20185;-84
2023/05/19 06:38:46;;;;;;;2.53;0.90;;;19.70;44.50;;;;;;5077306;28;20153;-84
2023/05/19 06:41:12;;;;;;;1.15;1.05;;;19.70;44.40;;;;;;5094744;28;20227;-83
2023/05/19 06:43:37;;;;;;;0.93;0.80;;;19.60;44.10;;;;;;5078183;28;20192;-84
2023/05/19 06:46:03;;;;;;;0.70;0.70;;;19.50;44.30;;;;;;5096403;28;20217;-84
2023/05/19 06:48:29;;;;;;;1.27;0.90;;;19.30;44.40;;;;;;5078228;28;20228;-84
2023/05/19 06:50:55;;;;;;;0.77;0.77;;;19.20;44.50;;;;;;5078435;28;20169;-85
2023/05/19 06:53:21;;;;;;;1.40;1.00;;;19.20;44.80;;;;;;5095127;28;20236;-83
2023/05/19 06:55:49;;;;;;;1.35;1.00;;;19.20;44.60;;;;;;5078694;28;20168;-84
2023/05/19 06:58:15;;;;;;;1.02;0.90;;;19.20;44.70;;;;;;5078258;28;20279;-84
2023/05/19 07:00:42;;;;;;;1.05;0.93;;;19.10;44.90;;;;;;5078593;28;20207;-84
2023/05/19 07:03:07;;;;;;;1.02;0.70;;;19.10;44.80;;;;;;5061499;28;20199;-84
2023/05/19 07:05:33;;;;;;;1.10;1.00;;;19.10;44.90;;;;;;5095622;28;20161;-84
2023/05/19 07:07:59;;;;;;;0.80;0.70;;;19.10;45.00;;;;;;5079591;28;20205;-84
2023/05/19 07:10:24;;;;;;;0.95;0.90;;;19.20;45.00;;;;;;5078488;28;20153;-84
2023/05/19 07:12:50;;;;;;;0.82;0.82;;;19.20;44.90;;;;;;5095818;28;20195;-83
2023/05/19 07:15:16;;;;;;;0.75;0.73;;;19.20;44.90;;;;;;5078186;28;20294;-83
2023/05/19 07:17:41;;;;;;;1.17;0.90;;;19.20;44.90;;;;;;5094701;28;20511;-83
2023/05/19 07:20:09;;;;;;;1.05;0.90;;;19.20;44.80;;;;;;5095846;28;20152;-83
2023/05/19 07:22:35;;;;;;;1.17;0.90;;;19.30;44.80;;;;;;5118652;27;20215;-83
2023/05/19 07:25:01;;;;;;;1.40;0.70;;;19.30;44.90;;;;;;5119453;27;20239;-83
2023/05/19 07:27:26;;;;;;;1.02;0.82;;;19.20;44.70;;;;;;5116472;28;20160;-84
2023/05/19 07:29:52;;;;;;;1.60;0.90;;;19.30;44.70;;;;;;5117892;28;20152;-84
2023/05/19 07:32:18;;;;;;;2.85;0.95;;;19.30;44.60;;;;;;5100597;27;20175;-83
2023/05/19 07:34:44;;;;;;;0.93;0.73;;;19.30;44.50;;;;;;5138239;27;20575;-83
2023/05/19 07:37:10;;;;;;;0.93;0.70;;;19.30;44.60;;;;;;5137942;27;20514;-83
2023/05/19 07:39:35;;;;;;;1.23;0.82;;;19.40;44.60;;;;;;5123621;27;20636;-83
2023/05/19 07:42:01;;;;;;;1.38;0.75;;;19.30;44.60;;;;;;5136683;27;20593;-83
2023/05/19 07:44:27;;;;;;;0.90;0.73;;;19.30;44.60;;;;;;5136844;27;20239;-83
2023/05/19 07:46:55;;;;;;;1.98;1.05;;;19.30;44.60;;;;;;5138462;27;20139;-83
2023/05/19 07:49:21;;;;;;;0.90;0.82;;;19.50;44.50;;;;;;5119196;27;20587;-83
2023/05/19 07:51:46;;;;;;;1.10;0.90;;;19.40;44.50;;;;;;5118639;27;20231;-83
2023/05/19 07:54:12;;;;;;;1.00;0.90;;;19.30;44.50;;;;;;5100523;27;20262;-83
2023/05/19 07:56:38;;;;;;;1.13;0.95;;;19.30;44.60;;;;;;5131059;27;20163;-83
2023/05/19 07:59:04;;;;;;;0.88;0.80;;;19.20;44.70;;;;;;5097580;28;20308;-83
2023/05/19 08:01:30;;;;;;;1.30;0.95;;;19.30;44.70;;;;;;5101115;27;20148;-83
2023/05/19 08:03:56;;;;;;;1.60;1.00;;;19.40;44.60;;;;;;5102061;27;20194;-83
2023/05/19 08:06:24;;;;;;;2.45;0.85;;;19.40;44.70;;;;;;5139065;27;20155;-83
2023/05/19 08:08:50;;;;;;;1.55;0.98;;;19.30;44.60;;;;;;5117224;27;20185;-83
2023/05/19 08:11:15;;;;;;;1.00;0.70;;;19.40;44.50;;;;;;5116651;27;20506;-84
2023/05/19 08:13:41;;;;;;;3.42;1.10;;;19.50;44.40;;;;;;5099393;27;20660;-83
2023/05/19 08:16:07;;;;;;;1.83;1.05;;;19.50;44.30;;;;;;5117174;27;20254;-83
2023/05/19 08:18:32;;;;;;;2.58;0.85;;;19.40;44.40;;;;;;5102849;27;20222;-83
2023/05/19 08:20:58;;;;;;;0.77;0.63;;;19.50;44.40;;;;;;5102871;28;20636;-84
2023/05/19 08:23:24;;;;;;;2.60;1.10;;;19.50;44.50;;;;;;5116881;28;20211;-84
2023/05/19 08:25:50;;;;;;;1.05;0.85;;;19.40;44.40;;;;;;5083112;28;20170;-83
2023/05/19 08:28:15;;;;;;;1.45;0.80;;;19.40;44.40;;;;;;5074804;28;20184;-83
2023/05/19 08:30:41;;;;;;;1.05;0.95;;;19.50;44.40;;;;;;5075369;28;20244;-84
2023/05/19 08:33:07;;;;;;;1.35;0.70;;;19.40;44.30;;;;;;5091773;28;20181;-84
2023/05/19 08:35:33;;;;;;;2.25;0.90;;;19.40;44.40;;;;;;5074077;28;20173;-83
2023/05/19 08:37:59;;;;;;;1.77;0.90;;;19.50;44.30;;;;;;5091817;28;20183;-84
2023/05/19 08:40:26;;;;;;;0.95;0.73;;;19.50;44.30;;;;;;5091706;28;20164;-84
2023/05/19 08:42:52;;;;;;;1.05;0.95;;;19.50;44.30;;;;;;5088513;28;20180;-84
2023/05/19 08:45:19;;;;;;;1.02;0.90;;;19.50;44.40;;;;;;5078453;28;20260;-84
2023/05/19 08:47:46;;;;;;;1.13;0.90;;;19.50;44.40;;;;;;5060817;28;20267;-84
2023/05/19 08:50:13;;;;;;;1.50;0.77;;;19.50;44.30;;;;;;5059983;28;20663;-83
2023/05/19 08:52:50;;;;;;;1.70;0.80;;;19.50;44.40;;;;;;5058587;28;20165;-83
2023/05/19 08:55:28;;;;;;;1.00;0.70;;;19.60;44.30;;;;;;5075232;28;20243;-84
2023/05/19 08:57:53;;;;;;;1.30;0.70;;;19.60;44.20;;;;;;5074914;28;20152;-84
2023/05/19 09:00:19;;;;;;;0.90;0.90;;;19.60;44.10;;;;;;5097205;28;20294;-83
2023/05/19 09:02:50;;;;;;;0.80;0.80;;;19.50;44.10;;;;;;5117203;27;20216;-84
2023/05/19 09:05:16;;;;;;;1.27;0.85;;;19.60;44.40;;;;;;5121023;27;20152;-84
2023/05/19 09:07:43;;;;;;;0.98;0.70;;;19.60;44.20;;;;;;5120152;27;20159;-84
2023/05/19 09:10:12;;;;;;;2.13;0.98;;;19.70;44.30;;;;;;5102798;27;20155;-84
2023/05/19 09:12:39;;;;;;;0.82;0.80;;;19.60;44.30;;;;;;5120555;27;20144;-84
2023/05/19 09:15:06;;;;;;;0.60;0.60;;;19.60;44.20;;;;;;5120486;27;20156;-83
2023/05/19 09:17:34;;;;;;;1.15;0.80;;;19.70;44.20;;;;;;5120424;27;20167;-83
2023/05/19 09:20:03;;;;;;;0.98;0.90;;;19.70;44.20;;;;;;5103009;27;20167;-84
2023/05/19 09:22:29;;;;;;;1.33;0.77;;;19.70;44.10;;;;;;5119886;27;20215;-84
2023/05/19 09:24:55;;;;;;;1.08;0.95;;;19.60;44.30;;;;;;5138338;27;20187;-84
2023/05/19 09:27:22;;;;;;;0.80;0.80;;;19.60;44.30;;;;;;5108293;27;20629;-84
2023/05/19 09:29:49;;;;;;;1.80;0.80;;;19.70;44.30;;;;;;5129208;27;20211;-84
2023/05/19 09:32:24;;;;;;;1.27;0.90;;;19.60;44.40;;;;;;5111430;27;20191;-84
2023/05/19 09:34:50;;;;;;;0.80;0.80;;;19.60;44.40;;;;;;5112228;27;20188;-85
2023/05/19 09:37:20;;;;;;;1.25;0.80;;;19.70;44.40;;;;;;5127957;27;20209;-84
2023/05/19 09:39:50;;;;;;;0.88;0.88;;;19.60;44.40;;;;;;5146650;27;20174;-84
2023/05/19 09:42:17;;;;;;;1.13;0.80;;;19.60;44.40;;;;;;5130051;27;20570;-84
2023/05/19 09:44:43;;;;;;;1.17;0.85;;;19.70;45.10;;;;;;5112666;27;20191;-84
2023/05/19 09:47:09;;;;;;;0.80;0.80;;;19.70;44.30;;;;;;5108675;28;20164;-84
2023/05/19 09:49:37;;;;;;;3.03;1.17;;;19.70;44.40;;;;;;5112731;27;20267;-84
2023/05/19 09:52:03;;;;;;;1.67;0.90;;;19.70;44.40;;;;;;5128238;27;20144;-84
2023/05/19 09:54:30;;;;;;;1.08;0.80;;;19.60;44.40;;;;;;5109246;27;20640;-84
2023/05/19 09:57:00;;;;;;;2.55;0.80;;;19.70;44.40;;;;;;5143734;27;20216;-84
2023/05/19 09:59:27;;;;;;;2.75;0.70;;;19.60;44.40;;;;;;5124839;28;20179;-85
2023/05/19 10:01:55;;;;;;;0.70;0.70;;;19.60;44.30;;;;;;5090750;28;20201;-84
2023/05/19 10:04:22;;;;;;;1.02;0.90;;;19.60;44.20;;;;;;5091176;28;20172;-85
2023/05/19 10:06:52;;;;;;;0.93;0.73;;;19.60;44.40;;;;;;5090583;28;20152;-84
2023/05/19 10:09:26;;;;;;;1.20;0.88;;;19.60;44.40;;;;;;5107800;28;20160;-84
2023/05/19 10:11:53;;;;;;;1.50;1.20;;;19.70;44.50;;;;;;5108702;28;20156;-85
2023/05/19 10:14:24;;;;;;;1.00;0.90;;;19.60;44.40;;;;;;5092957;28;20159;-84
2023/05/19 10:16:52;;;;;;;1.40;1.08;;;19.60;44.50;;;;;;5084243;27;20221;-84
2023/05/19 10:19:20;;;;;;;1.10;1.00;;;19.60;44.70;;;;;;5128327;27;20159;-84
2023/05/19 10:21:46;;;;;;;1.33;0.80;;;19.60;45.50;;;;;;5124799;28;20215;-84
2023/05/19 10:24:11;;;;;;;1.00;0.90;;;19.60;44.70;;;;;;5121612;28;20192;-85
2023/05/19 10:26:38;;;;;;;3.28;0.90;;;19.60;44.70;;;;;;5105091;28;20178;-85
2023/05/19 10:29:03;;;;;;;0.80;0.80;;;19.60;44.70;;;;;;5099557;28;20200;-85
2023/05/19 10:31:30;;;;;;;1.13;0.93;;;19.60;44.70;;;;;;5103943;28;20153;-84
2023/05/19 10:34:22;;;;;;;0.80;0.80;;;19.60;44.80;;;;;;5086451;28;20177;-84
2023/05/19 10:36:48;;;;;;;0.98;0.90;;;19.60;44.70;;;;;;5105865;28;20256;-85
2023/05/19 10:39:24;;;;;;;0.90;0.90;;;19.60;44.80;;;;;;5086742;28;20168;-85
2023/05/19 10:42:08;;;;;;;1.05;0.88;;;19.60;44.90;;;;;;5104155;28;20153;-84
2023/05/19 10:45:09;;;;;;;0.98;0.88;;;19.60;44.90;;;;;;5086983;28;20192;-85
2023/05/19 10:47:35;;;;;;;0.70;0.70;;;19.60;45.20;;;;;;5091459;28;20168;-84
2023/05/19 10:50:05;;;;;;;1.02;0.90;;;19.60;45.10;;;;;;5104880;28;20145;-85
2023/05/19 10:52:32;;;;;;;1.10;1.00;;;19.70;45.10;;;;;;5085898;28;20157;-84
2023/05/19 10:55:01;;;;;;;1.13;1.02;;;19.70;45.00;;;;;;5086493;28;20156;-84
2023/05/19 10:57:27;;;;;;;1.10;1.00;;;19.60;45.00;;;;;;5102761;28;20160;-84
2023/05/19 10:59:56;;;;;;;0.80;0.80;;;19.70;45.10;;;;;;5086915;28;20232;-85
2023/05/19 11:02:39;;;;;;;1.25;1.15;;;19.70;45.10;;;;;;5103227;28;20474;-84
2023/05/19 11:05:10;;;;;;;1.10;1.00;;;19.70;45.80;;;;;;5085369;28;20566;-84
2023/05/19 11:07:35;;;;;;;1.17;1.08;;;19.70;45.10;;;;;;5086884;28;20168;-85
2023/05/19 11:10:05;;;;;;;1.30;1.20;;;19.70;45.20;;;;;;5116938;28;20164;-84
2023/05/19 11:12:40;;;;;;;1.00;0.90;;;19.70;45.10;;;;;;5119930;28;20153;-84
2023/05/19 11:15:09;;;;;;;1.95;1.02;;;19.70;45.20;;;;;;5139193;27;20163;-84
2023/05/19 11:17:36;;;;;;;1.60;1.10;;;19.70;45.20;;;;;;5123421;28;20184;-84
2023/05/19 11:20:06;;;;;;;1.40;1.00;;;19.70;45.30;;;;;;5119990;28;20196;-84
2023/05/19 11:22:32;;;;;;;1.95;1.10;;;19.80;45.30;;;;;;5101019;28;20224;-83
2023/05/19 11:24:58;;;;;;;1.73;1.08;;;19.80;45.40;;;;;;5120419;28;20184;-84
2023/05/19 11:27:33;;;;;;;1.10;1.00;;;19.80;45.50;;;;;;5118889;28;20526;-84
2023/05/19 11:30:00;;;;;;;1.30;1.10;;;19.80;45.50;;;;;;5101541;28;20164;-84
2023/05/19 11:32:28;;;;;;;1.38;1.25;;;19.70;45.50;;;;;;5122874;28;20171;-84
2023/05/19 11:34:55;;;;;;;1.95;1.10;;;19.70;45.50;;;;;;5117747;28;20169;-84
2023/05/19 11:37:21;;;;;;;1.42;1.20;;;19.70;45.50;;;;;;5084261;28;20165;-84
2023/05/19 11:39:46;;;;;;;1.25;1.15;;;19.80;45.50;;;;;;5101120;28;20168;-84
2023/05/19 11:42:12;;;;;;;1.75;1.20;;;19.80;45.40;;;;;;5084872;28;20503;-84
2023/05/19 11:44:40;;;;;;;1.10;1.00;;;19.80;45.50;;;;;;5101652;28;20193;-84
2023/05/19 11:47:08;;;;;;;1.40;1.30;;;19.80;45.60;;;;;;5101762;28;20618;-84
2023/05/19 11:49:33;;;;;;;2.78;1.15;;;19.80;45.70;;;;;;5101824;28;20176;-84
2023/05/19 11:52:01;;;;;;;1.42;1.10;;;19.70;45.70;;;;;;5086112;28;20168;-84
2023/05/19 11:54:31;;;;;;;2.00;1.10;;;19.70;45.70;;;;;;5102255;28;20172;-86
2023/05/19 11:56:56;;;;;;;1.98;1.10;;;19.80;45.60;;;;;;5103016;28;20205;-84
2023/05/19 11:59:42;;;;;;;1.38;1.00;;;19.80;45.60;;;;;;5101820;28;20244;-84
2023/05/19 12:02:26;;;;;;;1.15;1.08;;;19.90;45.40;;;;;;5122315;28;20504;-83
2023/05/19 12:04:53;;;;;;;1.17;1.08;;;19.90;45.40;;;;;;5075394;28;20553;-84
2023/05/19 12:07:22;;;;;;;1.02;0.88;;;19.80;45.30;;;;;;5114272;28;20660;-84
2023/05/19 12:09:48;;;;;;;2.15;1.00;;;19.90;45.10;;;;;;5103076;28;20561;-84
2023/05/19 12:12:19;;;;;;;1.15;1.05;;;19.90;45.00;;;;;;5101750;28;20164;-84
2023/05/19 12:14:45;;;;;;;2.08;1.13;;;19.90;45.00;;;;;;5102687;28;20172;-84
2023/05/19 12:17:12;;;;;;;1.20;1.10;;;19.90;45.00;;;;;;5102695;28;20571;-84
2023/05/19 12:19:43;;;;;;;1.67;1.00;;;19.90;45.00;;;;;;5119363;28;20156;-85
2023/05/19 12:22:09;;;;;;;2.05;0.98;;;19.90;44.60;;;;;;5113171;28;20711;-85
2023/05/19 12:24:36;;;;;;;1.95;1.20;;;19.80;44.90;;;;;;5081936;28;20296;-84
2023/05/19 12:27:16;;;;;;;1.88;1.02;;;19.80;44.90;;;;;;5080826;28;20229;-84
2023/05/19 12:29:48;;;;;;;1.45;1.35;;;19.80;44.60;;;;;;5099080;28;20155;-84
2023/05/19 12:32:14;;;;;;;1.50;1.17;;;19.80;44.60;;;;;;5080591;28;20165;-84
2023/05/19 12:34:41;;;;;;;1.17;1.08;;;19.90;44.80;;;;;;5080986;28;20185;-84
2023/05/19 12:37:07;;;;;;;0.90;0.90;;;19.80;44.70;;;;;;5096638;28;20167;-84
2023/05/19 12:39:33;;;;;;;1.50;1.00;;;19.80;44.50;;;;;;5081568;28;20229;-84
2023/05/19 12:42:03;;;;;;;1.10;1.00;;;19.80;44.50;;;;;;5082408;28;20168;-84
2023/05/19 12:44:30;;;;;;;1.30;1.00;;;19.80;44.60;;;;;;5081370;28;20211;-84
2023/05/19 12:46:58;;;;;;;1.55;1.13;;;19.80;44.40;;;;;;5098740;28;20149;-84
2023/05/19 12:49:24;;;;;;;1.35;1.05;;;19.80;44.30;;;;;;5081839;28;20184;-84